createdAt,value
2019-05-14T00:00:53.462Z,0.00
2019-05-14T00:01:53.445Z,0.00
2019-05-14T00:02:53.447Z,0.00
2019-05-14T00:03:53.445Z,0.00
2019-05-14T00:04:53.423Z,0.00
2019-05-14T00:05:53.545Z,0.00
2019-05-14T00:06:53.401Z,0.00
2019-05-14T00:07:53.385Z,0.00
2019-05-14T00:08:53.396Z,0.00
2019-05-14T00:09:53.372Z,0.00
2019-05-14T00:10:53.360Z,0.00
2019-05-14T00:11:53.338Z,0.00
2019-05-14T00:12:53.337Z,0.00
2019-05-14T00:13:53.336Z,0.00
2019-05-14T00:14:53.324Z,0.00
2019-05-14T00:15:53.304Z,0.00
2019-05-14T00:16:53.281Z,0.00
2019-05-14T00:17:53.284Z,0.00
2019-05-14T00:18:53.263Z,0.00
2019-05-14T00:20:06.274Z,0.00
2019-05-14T00:20:53.250Z,0.00
2019-05-14T00:21:53.224Z,0.00
2019-05-14T00:22:53.228Z,0.00
2019-05-14T00:23:53.215Z,0.00
2019-05-14T00:24:53.221Z,0.00
2019-05-14T00:25:53.184Z,0.00
2019-05-14T00:26:53.187Z,0.00
2019-05-14T00:27:53.168Z,0.00
2019-05-14T00:28:53.172Z,0.00
2019-05-14T00:29:53.167Z,0.00
2019-05-14T00:30:53.128Z,0.00
2019-05-14T00:31:53.123Z,0.00
2019-05-14T00:32:53.123Z,0.00
2019-05-14T00:33:53.110Z,0.00
2019-05-14T00:34:53.102Z,0.00
2019-05-14T00:35:53.089Z,0.00
2019-05-14T00:36:53.067Z,0.00
2019-05-14T00:37:53.065Z,0.00
2019-05-14T00:38:53.049Z,0.00
2019-05-14T00:39:53.059Z,0.00
2019-05-14T00:40:53.029Z,0.00
2019-05-14T00:41:53.025Z,0.00
2019-05-14T00:42:53.406Z,0.00
2019-05-14T00:43:52.996Z,0.00
2019-05-14T00:44:57.751Z,0.00
2019-05-14T00:45:52.971Z,0.00
2019-05-14T00:46:52.965Z,0.00
2019-05-14T00:47:52.953Z,0.00
2019-05-14T00:48:52.943Z,0.00
2019-05-14T00:49:52.950Z,0.00
2019-05-14T00:50:52.918Z,0.00
2019-05-14T00:51:52.916Z,0.00
2019-05-14T00:52:52.905Z,0.00
2019-05-14T00:53:52.888Z,0.00
2019-05-14T00:54:52.899Z,0.00
2019-05-14T00:55:52.877Z,0.00
2019-05-14T00:56:52.872Z,0.00
2019-05-14T00:57:52.850Z,0.00
2019-05-14T00:58:52.839Z,0.00
2019-05-14T00:59:52.829Z,0.00
2019-05-14T01:00:52.817Z,0.00
2019-05-14T01:01:52.807Z,0.00
2019-05-14T01:04:01.993Z,0.00
2019-05-14T01:05:02.984Z,0.00
2019-05-14T01:06:03.239Z,0.00
2019-05-14T01:07:02.949Z,0.00
2019-05-14T01:08:02.935Z,0.00
2019-05-14T01:09:02.923Z,0.00
2019-05-14T01:10:02.926Z,0.00
2019-05-14T01:11:02.913Z,0.00
2019-05-14T01:12:02.906Z,0.00
2019-05-14T01:13:02.887Z,0.00
2019-05-14T01:14:02.877Z,0.00
2019-05-14T01:15:10.221Z,0.00
2019-05-14T01:16:02.855Z,0.00
2019-05-14T01:17:02.855Z,0.00
2019-05-14T01:18:02.827Z,0.00
2019-05-14T01:19:02.817Z,0.00
2019-05-14T01:20:03.261Z,0.00
2019-05-14T01:21:02.804Z,0.00
2019-05-14T01:22:02.793Z,0.00
2019-05-14T01:23:02.774Z,0.00
2019-05-14T01:24:02.769Z,0.00
2019-05-14T01:25:02.775Z,0.00
2019-05-14T01:26:02.747Z,0.00
2019-05-14T01:27:02.730Z,0.00
2019-05-14T01:28:02.722Z,0.00
2019-05-14T01:29:02.721Z,0.00
2019-05-14T01:30:02.840Z,0.00
2019-05-14T01:31:02.701Z,0.00
2019-05-14T01:32:02.681Z,0.00
2019-05-14T01:33:02.673Z,0.00
2019-05-14T01:34:02.654Z,0.00
2019-05-14T01:35:02.649Z,0.00
2019-05-14T01:36:02.656Z,0.00
2019-05-14T01:37:02.717Z,0.00
2019-05-14T01:38:02.895Z,0.00
2019-05-14T01:39:02.603Z,0.00
2019-05-14T01:40:02.601Z,0.00
2019-05-14T01:41:02.604Z,0.00
2019-05-14T01:42:02.783Z,0.00
2019-05-14T01:43:02.816Z,0.00
2019-05-14T01:44:02.552Z,0.00
2019-05-14T01:45:02.750Z,0.00
2019-05-14T01:46:02.554Z,0.00
2019-05-14T01:47:02.509Z,0.00
2019-05-14T01:48:02.504Z,0.00
2019-05-14T01:49:02.505Z,0.00
2019-05-14T01:50:02.493Z,0.00
2019-05-14T01:51:02.504Z,0.00
2019-05-14T01:52:02.463Z,0.00
2019-05-14T01:53:03.226Z,0.00
2019-05-14T01:54:02.438Z,0.00
2019-05-14T01:55:02.426Z,0.00
2019-05-14T01:56:02.438Z,0.00
2019-05-14T01:57:02.412Z,0.00
2019-05-14T01:58:02.548Z,0.00
2019-05-14T01:59:02.391Z,0.00
2019-05-14T02:00:02.490Z,0.00
2019-05-14T02:01:02.383Z,0.00
2019-05-14T02:02:02.570Z,0.00
2019-05-14T02:03:02.348Z,0.00
2019-05-14T02:04:02.471Z,0.00
2019-05-14T02:05:02.326Z,0.00
2019-05-14T02:06:02.330Z,0.00
2019-05-14T02:07:02.497Z,0.00
2019-05-14T02:08:02.294Z,0.00
2019-05-14T02:09:02.279Z,0.00
2019-05-14T02:10:02.273Z,0.00
2019-05-14T02:11:02.284Z,0.00
2019-05-14T02:12:02.434Z,0.00
2019-05-14T02:13:02.242Z,0.00
2019-05-14T02:14:02.569Z,0.00
2019-05-14T02:15:02.207Z,0.00
2019-05-14T02:16:02.852Z,0.00
2019-05-14T02:17:02.208Z,0.00
2019-05-14T02:18:02.505Z,0.00
2019-05-14T02:19:02.177Z,0.00
2019-05-14T02:20:02.296Z,0.00
2019-05-14T02:21:02.167Z,0.00
2019-05-14T02:22:02.310Z,0.00
2019-05-14T02:23:02.140Z,0.00
2019-05-14T02:24:02.218Z,0.00
2019-05-14T02:25:02.461Z,0.00
2019-05-14T02:26:02.731Z,0.00
2019-05-14T02:27:02.179Z,0.00
2019-05-14T02:28:02.076Z,0.00
2019-05-14T02:29:02.165Z,0.00
2019-05-14T02:30:02.371Z,0.00
2019-05-14T02:31:03.820Z,0.00
2019-05-14T02:32:02.056Z,0.00
2019-05-14T02:33:02.040Z,0.00
2019-05-14T02:34:02.019Z,0.00
2019-05-14T02:35:02.000Z,0.00
2019-05-14T02:36:01.998Z,0.00
2019-05-14T02:37:01.992Z,0.00
2019-05-14T02:38:01.971Z,0.00
2019-05-14T02:39:01.964Z,0.00
2019-05-14T02:40:01.970Z,0.00
2019-05-14T02:41:01.949Z,0.00
2019-05-14T02:42:01.957Z,0.00
2019-05-14T02:43:01.919Z,0.00
2019-05-14T02:44:01.907Z,0.00
2019-05-14T02:45:01.896Z,0.00
2019-05-14T02:46:11.265Z,0.00
2019-05-14T02:47:01.887Z,0.00
2019-05-14T02:48:01.867Z,0.00
2019-05-14T02:49:01.855Z,0.00
2019-05-14T02:50:01.853Z,0.00
2019-05-14T02:51:01.838Z,0.00
2019-05-14T02:52:01.829Z,0.00
2019-05-14T02:53:01.812Z,0.00
2019-05-14T02:54:01.801Z,0.00
2019-05-14T02:55:01.795Z,0.00
2019-05-14T02:56:01.783Z,4.00
2019-05-14T02:57:01.782Z,4.00
2019-05-14T02:58:01.754Z,0.00
2019-05-14T02:59:05.612Z,0.00
2019-05-14T03:00:01.747Z,4.00
2019-05-14T03:01:01.737Z,4.00
2019-05-14T03:02:01.733Z,4.00
2019-05-14T03:03:01.714Z,4.00
2019-05-14T03:05:10.891Z,8.00
2019-05-14T03:06:11.878Z,8.00
2019-05-14T03:07:11.881Z,8.00
2019-05-14T03:08:11.847Z,8.00
2019-05-14T03:09:11.839Z,8.00
2019-05-14T03:10:11.836Z,12.00
2019-05-14T03:11:11.819Z,12.00
2019-05-14T03:12:11.835Z,16.00
2019-05-14T03:13:11.802Z,16.00
2019-05-14T03:14:11.808Z,20.00
2019-05-14T03:15:11.782Z,24.00
2019-05-14T03:16:25.974Z,24.00
2019-05-14T03:17:12.158Z,28.00
2019-05-14T03:18:11.752Z,32.00
2019-05-14T03:19:11.728Z,36.00
2019-05-14T03:20:11.721Z,44.00
2019-05-14T03:21:11.723Z,48.00
2019-05-14T03:22:11.695Z,56.00
2019-05-14T03:23:18.197Z,64.00
2019-05-14T03:24:11.679Z,68.00
2019-05-14T03:25:11.664Z,76.00
2019-05-14T03:26:11.649Z,84.00
2019-05-14T03:27:11.654Z,96.00
2019-05-14T03:28:11.657Z,108.00
2019-05-14T03:29:11.624Z,120.00
2019-05-14T03:30:13.277Z,132.00
2019-05-14T03:31:13.102Z,144.00
2019-05-14T03:32:13.634Z,156.00
2019-05-14T03:33:13.487Z,172.00
2019-05-14T03:34:13.699Z,188.00
2019-05-14T03:35:13.473Z,200.00
2019-05-14T03:36:17.679Z,224.00
2019-05-14T03:37:13.508Z,240.00
2019-05-14T03:38:11.554Z,256.00
2019-05-14T03:39:11.515Z,280.00
2019-05-14T03:40:11.505Z,300.00
2019-05-14T03:41:14.107Z,320.00
2019-05-14T03:42:11.492Z,340.00
2019-05-14T03:43:11.499Z,368.00
2019-05-14T03:44:11.477Z,392.00
2019-05-14T03:45:11.448Z,416.00
2019-05-14T03:46:11.443Z,440.00
2019-05-14T03:47:11.427Z,472.00
2019-05-14T03:48:11.443Z,500.00
2019-05-14T03:49:11.406Z,524.00
2019-05-14T03:50:11.397Z,556.00
2019-05-14T03:51:11.386Z,584.00
2019-05-14T03:52:11.367Z,620.00
2019-05-14T03:53:11.389Z,652.00
2019-05-14T03:54:12.653Z,684.00
2019-05-14T03:55:11.362Z,716.00
2019-05-14T03:56:11.332Z,752.00
2019-05-14T03:57:11.328Z,784.00
2019-05-14T03:58:11.343Z,820.00
2019-05-14T03:59:11.399Z,860.00
2019-05-14T04:00:11.301Z,892.00
2019-05-14T04:01:11.322Z,928.00
2019-05-14T04:02:11.272Z,968.00
2019-05-14T04:03:11.265Z,1012.00
2019-05-14T04:04:11.253Z,1052.00
2019-05-14T04:05:11.259Z,1088.00
2019-05-14T04:06:11.219Z,1132.00
2019-05-14T04:07:11.222Z,1172.00
2019-05-14T04:08:11.222Z,1208.00
2019-05-14T04:09:11.197Z,1252.00
2019-05-14T04:10:11.186Z,1288.00
2019-05-14T04:11:11.163Z,1324.00
2019-05-14T04:12:11.152Z,1364.00
2019-05-14T04:13:11.173Z,1404.00
2019-05-14T04:14:11.169Z,1448.00
2019-05-14T04:15:11.139Z,1488.00
2019-05-14T04:16:11.110Z,1528.00
2019-05-14T04:17:15.450Z,1568.00
2019-05-14T04:18:11.101Z,1608.00
2019-05-14T04:19:11.100Z,1652.00
2019-05-14T04:20:11.076Z,1692.00
2019-05-14T04:21:11.065Z,1736.00
2019-05-14T04:22:11.077Z,1776.00
2019-05-14T04:23:11.053Z,1816.00
2019-05-14T04:24:11.044Z,1856.00
2019-05-14T04:25:11.398Z,1904.00
2019-05-14T04:26:11.026Z,1944.00
2019-05-14T04:27:12.959Z,1992.00
2019-05-14T04:28:10.989Z,2032.00
2019-05-14T04:29:11.009Z,2080.00
2019-05-14T04:30:10.959Z,2128.00
2019-05-14T04:31:10.985Z,2176.00
2019-05-14T04:32:11.061Z,2228.00
2019-05-14T04:33:10.937Z,2276.00
2019-05-14T04:34:10.995Z,2328.00
2019-05-14T04:35:10.904Z,2380.00
2019-05-14T04:36:10.910Z,2432.00
2019-05-14T04:37:10.888Z,2476.00
2019-05-14T04:38:10.876Z,2528.00
2019-05-14T04:39:10.886Z,2584.00
2019-05-14T04:40:10.873Z,2640.00
2019-05-14T04:41:10.859Z,2696.00
2019-05-14T04:42:10.827Z,2760.00
2019-05-14T04:43:10.828Z,2824.00
2019-05-14T04:44:10.823Z,2888.00
2019-05-14T04:45:11.503Z,2960.00
2019-05-14T04:46:11.083Z,3020.00
2019-05-14T04:47:30.132Z,3092.00
2019-05-14T04:48:27.313Z,3176.00
2019-05-14T04:49:10.781Z,3268.00
2019-05-14T04:50:11.065Z,3348.00
2019-05-14T04:51:10.748Z,3408.00
2019-05-14T04:52:10.753Z,3436.00
2019-05-14T04:53:10.714Z,3524.00
2019-05-14T04:54:10.718Z,3876.00
2019-05-14T04:55:10.724Z,3932.00
2019-05-14T04:56:10.678Z,3800.00
2019-05-14T04:57:10.922Z,3784.00
2019-05-14T04:58:10.667Z,4352.00
2019-05-14T04:59:10.837Z,4736.00
2019-05-14T05:00:12.322Z,4604.00
2019-05-14T05:01:10.650Z,5364.00
2019-05-14T05:02:10.634Z,6308.00
2019-05-14T05:03:12.715Z,6492.00
2019-05-14T05:04:10.618Z,6640.00
2019-05-14T05:06:19.799Z,6440.00
2019-05-14T05:07:20.780Z,6568.00
2019-05-14T05:08:20.756Z,6556.00
2019-05-14T05:09:20.754Z,6336.00
2019-05-14T05:10:20.749Z,5824.00
2019-05-14T05:11:21.577Z,5912.00
2019-05-14T05:12:20.719Z,6052.00
2019-05-14T05:13:20.706Z,6192.00
2019-05-14T05:14:23.760Z,6300.00
2019-05-14T05:15:20.722Z,6632.00
2019-05-14T05:16:20.677Z,6536.00
2019-05-14T05:17:20.666Z,5692.00
2019-05-14T05:18:20.655Z,6660.00
2019-05-14T05:19:20.636Z,7136.00
2019-05-14T05:20:20.646Z,7324.00
2019-05-14T05:21:20.623Z,4900.00
2019-05-14T05:22:20.653Z,6808.00
2019-05-14T05:23:20.619Z,4848.00
2019-05-14T05:24:20.614Z,4540.00
2019-05-14T05:25:20.611Z,5100.00
2019-05-14T05:26:20.595Z,6348.00
2019-05-14T05:27:20.598Z,5948.00
2019-05-14T05:28:20.555Z,4708.00
2019-05-14T05:29:20.540Z,5088.00
2019-05-14T05:30:20.535Z,6832.00
2019-05-14T05:31:20.522Z,6772.00
2019-05-14T05:32:20.500Z,4748.00
2019-05-14T05:33:20.484Z,4884.00
2019-05-14T05:34:20.491Z,5464.00
2019-05-14T05:35:20.494Z,5828.00
2019-05-14T05:36:20.498Z,6068.00
2019-05-14T05:37:20.451Z,5444.00
2019-05-14T05:38:20.439Z,5316.00
2019-05-14T05:39:20.435Z,6560.00
2019-05-14T05:40:20.420Z,8748.00
2019-05-14T05:41:20.440Z,8932.00
2019-05-14T05:42:20.398Z,8976.00
2019-05-14T05:43:20.684Z,9068.00
2019-05-14T05:44:20.377Z,9120.00
2019-05-14T05:45:20.761Z,9084.00
2019-05-14T05:46:20.368Z,8412.00
2019-05-14T05:47:20.365Z,9096.00
2019-05-14T05:48:20.392Z,9108.00
2019-05-14T05:49:20.317Z,8976.00
2019-05-14T05:50:20.317Z,8836.00
2019-05-14T05:51:20.306Z,8648.00
2019-05-14T05:52:20.273Z,8460.00
2019-05-14T05:53:20.267Z,8428.00
2019-05-14T05:54:20.260Z,8448.00
2019-05-14T05:55:20.262Z,8500.00
2019-05-14T05:56:20.253Z,8496.00
2019-05-14T05:57:20.364Z,8524.00
2019-05-14T05:58:20.215Z,8584.00
2019-05-14T05:59:20.198Z,8672.00
2019-05-14T06:00:20.202Z,8784.00
2019-05-14T06:01:20.211Z,8812.00
2019-05-14T06:02:20.187Z,8928.00
2019-05-14T06:03:20.876Z,8996.00
2019-05-14T06:04:20.149Z,9112.00
2019-05-14T06:05:20.134Z,9048.00
2019-05-14T06:06:20.145Z,9204.00
2019-05-14T06:07:20.222Z,9432.00
2019-05-14T06:08:20.104Z,9572.00
2019-05-14T06:09:20.209Z,9724.00
2019-05-14T06:10:20.083Z,9792.00
2019-05-14T06:11:20.100Z,9892.00
2019-05-14T06:12:20.336Z,9980.00
2019-05-14T06:13:20.062Z,10136.00
2019-05-14T06:14:20.039Z,10296.00
2019-05-14T06:15:20.032Z,8152.00
2019-05-14T06:16:20.096Z,8448.00
2019-05-14T06:17:20.006Z,8444.00
2019-05-14T06:18:22.165Z,8712.00
2019-05-14T06:19:20.000Z,9488.00
2019-05-14T06:20:20.003Z,10196.00
2019-05-14T06:21:19.984Z,10516.00
2019-05-14T06:22:19.974Z,6856.00
2019-05-14T06:23:19.938Z,10568.00
2019-05-14T06:24:19.942Z,10340.00
2019-05-14T06:25:21.107Z,9768.00
2019-05-14T06:26:19.932Z,9432.00
2019-05-14T06:27:19.910Z,7416.00
2019-05-14T06:28:20.914Z,7796.00
2019-05-14T06:29:19.885Z,7796.00
2019-05-14T06:30:19.971Z,7716.00
2019-05-14T06:31:20.851Z,7124.00
2019-05-14T06:32:19.851Z,7524.00
2019-05-14T06:33:19.826Z,6836.00
2019-05-14T06:34:19.828Z,7032.00
2019-05-14T06:35:19.818Z,7580.00
2019-05-14T06:36:19.945Z,8280.00
2019-05-14T06:37:19.842Z,8368.00
2019-05-14T06:38:19.781Z,7764.00
2019-05-14T06:39:19.759Z,7332.00
2019-05-14T06:40:19.762Z,7712.00
2019-05-14T06:41:19.750Z,7880.00
2019-05-14T06:42:19.748Z,7532.00
2019-05-14T06:43:19.772Z,9932.00
2019-05-14T06:44:19.709Z,9984.00
2019-05-14T06:45:19.697Z,9636.00
2019-05-14T06:46:19.757Z,10468.00
2019-05-14T06:47:19.708Z,10764.00
2019-05-14T06:48:30.766Z,10732.00
2019-05-14T06:49:19.658Z,11108.00
2019-05-14T06:50:20.527Z,11420.00
2019-05-14T06:51:20.283Z,11236.00
2019-05-14T06:52:19.665Z,11628.00
2019-05-14T06:53:19.611Z,11920.00
2019-05-14T06:54:19.821Z,12116.00
2019-05-14T06:55:19.587Z,11840.00
2019-05-14T06:56:21.664Z,11520.00
2019-05-14T06:57:19.575Z,11288.00
2019-05-14T06:58:20.476Z,10796.00
2019-05-14T06:59:19.545Z,11216.00
2019-05-14T07:00:19.541Z,11792.00
2019-05-14T07:01:19.689Z,11916.00
2019-05-14T07:02:19.579Z,11968.00
2019-05-14T07:03:19.510Z,11944.00
2019-05-14T07:04:19.499Z,11920.00
2019-05-14T07:05:19.812Z,11880.00
2019-05-14T07:07:29.972Z,11732.00
2019-05-14T07:08:29.657Z,11748.00
2019-05-14T07:09:29.642Z,11924.00
2019-05-14T07:10:29.631Z,12008.00
2019-05-14T07:11:29.615Z,12072.00
2019-05-14T07:12:29.639Z,12052.00
2019-05-14T07:13:29.614Z,12044.00
2019-05-14T07:14:29.593Z,12068.00
2019-05-14T07:15:29.578Z,12116.00
2019-05-14T07:16:29.569Z,12212.00
2019-05-14T07:17:30.087Z,12228.00
2019-05-14T07:18:45.215Z,12212.00
2019-05-14T07:19:29.796Z,12324.00
2019-05-14T07:20:29.539Z,12268.00
2019-05-14T07:21:29.512Z,12292.00
2019-05-14T07:22:29.581Z,12300.00
2019-05-14T07:23:29.502Z,12420.00
2019-05-14T07:24:29.486Z,8252.00
2019-05-14T07:25:29.481Z,12580.00
2019-05-14T07:26:29.777Z,12644.00
2019-05-14T07:27:29.464Z,12796.00
2019-05-14T07:28:29.773Z,12844.00
2019-05-14T07:29:29.543Z,12772.00
2019-05-14T07:30:29.404Z,12784.00
2019-05-14T07:31:29.837Z,12784.00
2019-05-14T07:32:29.442Z,12780.00
2019-05-14T07:33:29.617Z,12920.00
2019-05-14T07:34:29.359Z,12964.00
2019-05-14T07:35:29.386Z,12972.00
2019-05-14T07:36:29.546Z,12976.00
2019-05-14T07:37:29.491Z,12988.00
2019-05-14T07:38:29.695Z,13080.00
2019-05-14T07:39:29.403Z,13148.00
2019-05-14T07:40:29.304Z,13188.00
2019-05-14T07:41:29.288Z,13276.00
2019-05-14T07:42:29.308Z,13380.00
2019-05-14T07:43:29.283Z,13500.00
2019-05-14T07:44:29.773Z,13480.00
2019-05-14T07:45:29.242Z,13576.00
2019-05-14T07:46:29.267Z,13624.00
2019-05-14T07:47:29.313Z,13676.00
2019-05-14T07:48:29.216Z,13832.00
2019-05-14T07:49:29.303Z,13960.00
2019-05-14T07:50:29.392Z,14076.00
2019-05-14T07:51:29.174Z,14128.00
2019-05-14T07:52:29.180Z,14116.00
2019-05-14T07:53:38.803Z,14356.00
2019-05-14T07:54:29.135Z,14504.00
2019-05-14T07:55:29.139Z,14596.00
2019-05-14T07:56:29.911Z,14636.00
2019-05-14T07:57:29.170Z,14532.00
2019-05-14T07:58:29.285Z,14552.00
2019-05-14T07:59:32.138Z,14588.00
2019-05-14T08:00:29.918Z,14648.00
2019-05-14T08:01:29.912Z,14724.00
2019-05-14T08:02:29.180Z,14864.00
2019-05-14T08:03:29.907Z,14916.00
2019-05-14T08:04:29.204Z,15036.00
2019-05-14T08:05:29.026Z,11096.00
2019-05-14T08:06:29.129Z,15228.00
2019-05-14T08:07:30.148Z,15400.00
2019-05-14T08:08:29.478Z,15660.00
2019-05-14T08:09:29.033Z,15856.00
2019-05-14T08:10:29.097Z,15808.00
2019-05-14T08:11:28.951Z,15944.00
2019-05-14T08:12:28.943Z,16212.00
2019-05-14T08:13:28.984Z,16864.00
2019-05-14T08:14:33.644Z,17088.00
2019-05-14T08:15:28.905Z,9776.00
2019-05-14T08:16:29.219Z,16960.00
2019-05-14T08:17:28.890Z,17088.00
2019-05-14T08:18:29.356Z,17088.00
2019-05-14T08:19:31.398Z,17216.00
2019-05-14T08:20:28.852Z,17216.00
2019-05-14T08:21:29.302Z,17184.00
2019-05-14T08:22:29.280Z,17248.00
2019-05-14T08:23:28.856Z,17376.00
2019-05-14T08:24:30.021Z,17472.00
2019-05-14T08:25:28.803Z,17824.00
2019-05-14T08:26:29.471Z,18144.00
2019-05-14T08:27:31.078Z,9556.00
2019-05-14T08:28:29.134Z,19008.00
2019-05-14T08:29:28.835Z,10024.00
2019-05-14T08:30:28.782Z,18368.00
2019-05-14T08:31:29.404Z,18656.00
2019-05-14T08:32:28.713Z,19072.00
2019-05-14T08:33:29.134Z,19264.00
2019-05-14T08:34:32.211Z,19904.00
2019-05-14T08:35:29.105Z,20096.00
2019-05-14T08:36:28.792Z,20448.00
2019-05-14T08:37:28.673Z,21024.00
2019-05-14T08:38:30.534Z,19328.00
2019-05-14T08:39:28.753Z,10420.00
2019-05-14T08:40:28.833Z,10584.00
2019-05-14T08:41:28.950Z,11404.00
2019-05-14T08:42:29.167Z,11816.00
2019-05-14T08:43:29.365Z,13080.00
2019-05-14T08:44:29.348Z,14232.00
2019-05-14T08:45:28.581Z,12028.00
2019-05-14T08:46:28.570Z,21536.00
2019-05-14T08:47:29.185Z,21504.00
2019-05-14T08:48:30.475Z,21472.00
2019-05-14T08:49:39.047Z,11100.00
2019-05-14T08:50:28.514Z,12120.00
2019-05-14T08:51:29.555Z,19680.00
2019-05-14T08:52:28.961Z,22624.00
2019-05-14T08:53:28.932Z,19872.00
2019-05-14T08:54:28.575Z,19200.00
2019-05-14T08:55:29.632Z,11868.00
2019-05-14T08:56:28.458Z,11792.00
2019-05-14T08:57:29.242Z,20320.00
2019-05-14T08:58:29.911Z,22784.00
2019-05-14T08:59:28.798Z,23008.00
2019-05-14T09:00:28.696Z,23328.00
2019-05-14T09:01:29.239Z,12204.00
2019-05-14T09:02:28.731Z,13024.00
2019-05-14T09:03:28.925Z,12684.00
2019-05-14T09:04:30.338Z,12548.00
2019-05-14T09:05:28.749Z,13804.00
2019-05-14T09:06:29.002Z,15716.00
2019-05-14T09:08:38.942Z,20608.00
2019-05-14T09:09:38.536Z,13984.00
2019-05-14T09:10:40.268Z,13788.00
2019-05-14T09:11:45.258Z,12100.00
2019-05-14T09:12:38.906Z,11744.00
2019-05-14T09:13:38.578Z,19200.00
2019-05-14T09:14:38.955Z,21664.00
2019-05-14T09:15:38.603Z,21888.00
2019-05-14T09:16:46.462Z,22368.00
2019-05-14T09:17:38.989Z,13188.00
2019-05-14T09:18:38.879Z,20192.00
2019-05-14T09:19:39.486Z,13840.00
2019-05-14T09:20:38.535Z,22464.00
2019-05-14T09:21:39.738Z,17824.00
2019-05-14T09:22:39.762Z,24064.00
2019-05-14T09:23:39.135Z,23840.00
2019-05-14T09:24:38.887Z,23616.00
2019-05-14T09:25:46.934Z,23520.00
2019-05-14T09:26:39.096Z,23872.00
2019-05-14T09:27:38.943Z,16448.00
2019-05-14T09:28:39.192Z,23200.00
2019-05-14T09:29:39.487Z,14756.00
2019-05-14T09:30:38.328Z,14324.00
2019-05-14T09:31:39.275Z,14764.00
2019-05-14T09:32:38.989Z,15224.00
2019-05-14T09:33:38.923Z,26240.00
2019-05-14T09:34:39.314Z,25344.00
2019-05-14T09:35:38.762Z,26112.00
2019-05-14T09:36:39.526Z,14236.00
2019-05-14T09:37:39.578Z,24544.00
2019-05-14T09:38:42.336Z,24000.00
2019-05-14T09:40:49.104Z,23712.00
2019-05-14T09:41:49.954Z,20960.00
2019-05-14T09:42:50.247Z,13408.00
2019-05-14T09:43:49.852Z,13852.00
2019-05-14T09:44:49.893Z,13152.00
2019-05-14T09:45:49.814Z,13264.00
2019-05-14T09:46:50.626Z,13796.00
2019-05-14T09:47:50.745Z,14236.00
2019-05-14T09:48:49.812Z,14400.00
2019-05-14T09:49:49.797Z,13808.00
2019-05-14T09:50:49.760Z,13596.00
2019-05-14T09:51:50.631Z,13724.00
2019-05-14T09:52:49.746Z,24480.00
2019-05-14T09:53:49.731Z,24416.00
2019-05-14T09:54:49.798Z,24640.00
2019-05-14T09:55:49.698Z,25568.00
2019-05-14T09:56:50.034Z,14916.00
2019-05-14T09:57:49.681Z,15572.00
2019-05-14T09:58:49.916Z,15552.00
2019-05-14T09:59:53.165Z,15144.00
2019-05-14T10:00:49.653Z,15448.00
2019-05-14T10:01:50.642Z,16016.00
2019-05-14T10:02:49.651Z,17920.00
2019-05-14T10:03:49.852Z,16412.00
2019-05-14T10:04:49.639Z,26016.00
2019-05-14T10:05:50.129Z,26592.00
2019-05-14T10:06:49.580Z,26848.00
2019-05-14T10:07:49.774Z,18784.00
2019-05-14T10:08:49.572Z,22944.00
2019-05-14T10:09:49.583Z,15816.00
2019-05-14T10:10:49.565Z,14432.00
2019-05-14T10:11:49.539Z,25376.00
2019-05-14T10:12:56.010Z,25408.00
2019-05-14T10:13:51.368Z,20736.00
2019-05-14T10:14:49.527Z,25344.00
2019-05-14T10:15:49.488Z,22912.00
2019-05-14T10:16:49.469Z,24352.00
2019-05-14T10:17:50.144Z,13996.00
2019-05-14T10:18:52.719Z,14592.00
2019-05-14T10:19:49.984Z,14868.00
2019-05-14T10:20:49.659Z,14060.00
2019-05-14T10:21:49.508Z,23808.00
2019-05-14T10:22:49.432Z,24096.00
2019-05-14T10:23:49.418Z,24672.00
2019-05-14T10:24:49.511Z,21440.00
2019-05-14T10:25:49.416Z,23712.00
2019-05-14T10:26:49.379Z,23744.00
2019-05-14T10:27:49.631Z,23424.00
2019-05-14T10:28:49.342Z,23136.00
2019-05-14T10:29:49.353Z,22976.00
2019-05-14T10:30:49.323Z,22432.00
2019-05-14T10:31:50.033Z,22304.00
2019-05-14T10:32:49.403Z,11308.00
2019-05-14T10:33:49.285Z,10784.00
2019-05-14T10:34:49.292Z,10636.00
2019-05-14T10:35:49.304Z,11020.00
2019-05-14T10:36:49.275Z,13140.00
2019-05-14T10:37:49.305Z,11760.00
2019-05-14T10:38:49.261Z,12148.00
2019-05-14T10:39:49.234Z,11844.00
2019-05-14T10:40:49.199Z,11372.00
2019-05-14T10:41:49.199Z,11148.00
2019-05-14T10:42:49.560Z,11400.00
2019-05-14T10:43:49.814Z,22368.00
2019-05-14T10:44:49.211Z,22432.00
2019-05-14T10:45:49.700Z,20960.00
2019-05-14T10:46:49.146Z,21824.00
2019-05-14T10:47:49.503Z,22112.00
2019-05-14T10:48:49.116Z,20256.00
2019-05-14T10:49:49.135Z,21280.00
2019-05-14T10:50:59.058Z,21856.00
2019-05-14T10:51:49.093Z,17568.00
2019-05-14T10:52:49.152Z,21856.00
2019-05-14T10:53:49.283Z,22144.00
2019-05-14T10:54:55.726Z,21440.00
2019-05-14T10:55:49.100Z,22048.00
2019-05-14T10:56:49.529Z,21856.00
2019-05-14T10:57:54.118Z,22240.00
2019-05-14T10:58:49.292Z,22112.00
2019-05-14T10:59:49.020Z,22432.00
2019-05-14T11:00:49.585Z,22496.00
2019-05-14T11:01:48.972Z,22400.00
2019-05-14T11:02:49.265Z,22144.00
2019-05-14T11:03:48.950Z,21760.00
2019-05-14T11:04:48.997Z,21728.00
2019-05-14T11:05:48.994Z,21920.00
2019-05-14T11:06:49.175Z,21504.00
2019-05-14T11:07:48.925Z,21824.00
2019-05-14T11:08:49.427Z,21920.00
2019-05-14T11:09:48.956Z,21792.00
2019-05-14T11:10:49.841Z,21984.00
2019-05-14T11:11:48.855Z,22048.00
2019-05-14T11:12:50.676Z,22016.00
2019-05-14T11:13:48.831Z,21728.00
2019-05-14T11:14:49.379Z,22240.00
2019-05-14T11:15:48.950Z,22464.00
2019-05-14T11:16:48.850Z,22208.00
2019-05-14T11:17:49.002Z,22080.00
2019-05-14T11:18:49.775Z,22464.00
2019-05-14T11:19:48.789Z,22304.00
2019-05-14T11:20:51.423Z,21824.00
2019-05-14T11:21:48.743Z,21536.00
2019-05-14T11:22:49.246Z,19584.00
2019-05-14T11:23:49.237Z,21536.00
2019-05-14T11:24:49.287Z,21568.00
2019-05-14T11:25:48.901Z,21568.00
2019-05-14T11:26:49.032Z,21472.00
2019-05-14T11:27:49.354Z,21152.00
2019-05-14T11:28:49.246Z,21472.00
2019-05-14T11:29:49.233Z,10700.00
2019-05-14T11:30:49.404Z,14736.00
2019-05-14T11:31:48.743Z,10960.00
2019-05-14T11:32:49.325Z,9700.00
2019-05-14T11:33:49.781Z,9204.00
2019-05-14T11:34:48.613Z,9160.00
2019-05-14T11:35:48.607Z,20512.00
2019-05-14T11:36:49.668Z,21376.00
2019-05-14T11:37:48.572Z,21600.00
2019-05-14T11:38:50.859Z,21344.00
2019-05-14T11:39:48.874Z,21152.00
2019-05-14T11:41:59.006Z,20000.00
2019-05-14T11:42:59.470Z,20960.00
2019-05-14T11:43:59.422Z,21152.00
2019-05-14T11:44:59.185Z,16832.00
2019-05-14T11:45:59.530Z,12964.00
2019-05-14T11:47:02.445Z,9332.00
2019-05-14T11:47:59.155Z,9180.00
2019-05-14T11:48:59.562Z,9252.00
2019-05-14T11:49:59.305Z,9584.00
2019-05-14T11:50:59.625Z,10260.00
2019-05-14T11:52:06.801Z,18368.00
2019-05-14T11:52:59.105Z,21056.00
2019-05-14T11:53:59.085Z,21024.00
2019-05-14T11:54:59.080Z,19648.00
2019-05-14T11:55:59.110Z,20672.00
2019-05-14T11:56:59.095Z,16736.00
2019-05-14T11:57:59.063Z,20576.00
2019-05-14T11:58:59.201Z,21344.00
2019-05-14T11:59:59.036Z,21600.00
2019-05-14T12:00:59.010Z,21344.00
2019-05-14T12:01:59.463Z,21472.00
2019-05-14T12:02:58.986Z,21728.00
2019-05-14T12:03:59.762Z,21792.00
2019-05-14T12:04:58.956Z,22016.00
2019-05-14T12:05:58.983Z,22016.00
2019-05-14T12:06:59.339Z,22048.00
2019-05-14T12:07:58.934Z,22080.00
2019-05-14T12:08:58.930Z,21888.00
2019-05-14T12:09:58.918Z,21376.00
2019-05-14T12:10:59.380Z,20800.00
2019-05-14T12:11:58.952Z,21824.00
2019-05-14T12:12:58.882Z,22144.00
2019-05-14T12:13:59.897Z,22368.00
2019-05-14T12:14:58.851Z,20320.00
2019-05-14T12:15:59.174Z,11724.00
2019-05-14T12:16:59.984Z,10324.00
2019-05-14T12:17:59.715Z,9824.00
2019-05-14T12:18:59.149Z,9692.00
2019-05-14T12:19:59.494Z,9888.00
2019-05-14T12:20:59.361Z,10344.00
2019-05-14T12:22:07.034Z,21120.00
2019-05-14T12:22:59.251Z,22336.00
2019-05-14T12:24:04.331Z,12180.00